Time;durP1;ratioP1;P1;durP2;ratioP2;P2;SDS_P1;SDS_P2;PMS_P1;PMS_P2;Temp;Humidity;BMP_temperature;BMP_pressure;BME280_temperature;BME280_humidity;BME280_pressure;Samples;Min_cycle;Max_cycle;Signal;HPM_P1;HPM_P2
2021/12/05 00:24:25;;;;;;;28.67;21.77;;;;;;;;;;5055293;28;20048;-61
2021/12/05 00:27:00;;;;;;;27.17;21.40;;;;;;;;;;5052495;28;20498;-62
2021/12/05 00:29:44;;;;;;;32.67;23.37;;;;;;;;;;5055239;28;20470;-62
2021/12/05 00:32:18;;;;;;;30.53;22.90;;;;;;;;;;5053395;28;20061;-62
2021/12/05 00:48:16;;;;;;;31.73;22.77;;;;;;;;;;5054162;28;20033;-62
2021/12/05 00:55:57;;;;;;;29.50;21.87;;;;;;;;;;5053429;28;20029;-62
2021/12/05 01:12:15;;;;;;;29.95;23.02;;;;;;;;;;5044398;28;20032;-62
2021/12/05 01:17:20;;;;;;;32.70;23.07;;;;;;;;;;5041113;28;20117;-62
2021/12/05 01:19:47;;;;;;;29.57;22.77;;;;;;;;;;5034339;28;20112;-62
2021/12/05 01:22:16;;;;;;;34.93;24.27;;;;;;;;;;5048407;28;20029;-62
2021/12/05 01:30:10;;;;;;;43.70;29.93;;;;;;;;;;5052583;28;20090;-62
2021/12/05 01:35:42;;;;;;;36.67;27.33;;;;;;;;;;5021083;28;20067;-61
2021/12/05 01:38:22;;;;;;;41.13;28.83;;;;;;;;;;5033396;28;20034;-62
2021/12/05 01:51:49;;;;;;;43.75;31.08;;;;;;;;;;5033888;28;20116;-61
2021/12/05 02:00:09;;;;;;;45.97;32.28;;;;;;;;;;5034006;28;20124;-62
2021/12/05 02:43:33;;;;;;;36.23;24.97;;;;;;;;;;5024471;28;20091;-61
2021/12/05 02:46:02;;;;;;;32.57;23.93;;;;;;;;;;5013509;28;20072;-61
2021/12/05 02:48:30;;;;;;;36.03;24.27;;;;;;;;;;5015276;28;20191;-61
2021/12/05 02:50:57;;;;;;;33.33;23.77;;;;;;;;;;5032516;28;20025;-61
2021/12/05 02:53:33;;;;;;;31.13;23.13;;;;;;;;;;5030586;28;20034;-61
2021/12/05 02:56:00;;;;;;;30.70;23.80;;;;;;;;;;5036275;28;20017;-61
2021/12/05 02:58:40;;;;;;;32.10;23.17;;;;;;;;;;5035785;28;20391;-61
2021/12/05 03:01:13;;;;;;;30.10;22.13;;;;;;;;;;5036653;28;20030;-61
2021/12/05 03:03:39;;;;;;;30.87;21.70;;;;;;;;;;5035299;28;20116;-61
2021/12/05 03:06:15;;;;;;;32.27;23.40;;;;;;;;;;5036753;28;20068;-61
2021/12/05 03:08:41;;;;;;;32.63;22.77;;;;;;;;;;5035442;28;20064;-61
2021/12/05 03:11:07;;;;;;;33.57;23.87;;;;;;;;;;5035261;28;20025;-61
2021/12/05 03:13:35;;;;;;;29.50;23.07;;;;;;;;;;5034432;28;20061;-61
2021/12/05 03:16:01;;;;;;;34.33;24.33;;;;;;;;;;5036644;28;20018;-61
2021/12/05 03:18:27;;;;;;;33.57;23.60;;;;;;;;;;5035350;28;20017;-62
2021/12/05 03:20:53;;;;;;;31.57;24.30;;;;;;;;;;5016702;28;20362;-62
2021/12/05 03:23:19;;;;;;;29.27;23.30;;;;;;;;;;5016768;28;20037;-62
2021/12/05 03:25:45;;;;;;;33.20;23.60;;;;;;;;;;5033769;28;20022;-62
2021/12/05 03:28:11;;;;;;;32.00;24.10;;;;;;;;;;5035865;28;20030;-62
2021/12/05 03:30:37;;;;;;;31.93;23.03;;;;;;;;;;5034264;28;20095;-62
2021/12/05 03:33:04;;;;;;;35.73;25.53;;;;;;;;;;5036124;28;20030;-62
2021/12/05 03:35:31;;;;;;;30.73;23.47;;;;;;;;;;5035235;28;20025;-62
2021/12/05 03:37:58;;;;;;;31.23;24.03;;;;;;;;;;5048605;28;20056;-62
2021/12/05 03:40:26;;;;;;;30.47;23.37;;;;;;;;;;5052743;28;20068;-62
2021/12/05 03:42:53;;;;;;;34.60;24.93;;;;;;;;;;5040935;28;20394;-62
2021/12/05 03:45:22;;;;;;;31.87;23.40;;;;;;;;;;5052731;28;20390;-62
2021/12/05 03:47:48;;;;;;;31.47;23.23;;;;;;;;;;5054992;28;20497;-62
2021/12/05 03:50:15;;;;;;;32.87;24.47;;;;;;;;;;5055254;28;20108;-62
2021/12/05 03:52:41;;;;;;;36.53;24.47;;;;;;;;;;5053569;28;20364;-62
2021/12/05 03:55:08;;;;;;;35.60;24.60;;;;;;;;;;5053632;28;20124;-62
2021/12/05 03:57:34;;;;;;;32.10;23.60;;;;;;;;;;5054353;28;20040;-62
2021/12/05 04:00:01;;;;;;;31.63;24.00;;;;;;;;;;5056150;28;20029;-62
2021/12/05 04:02:29;;;;;;;32.63;24.97;;;;;;;;;;5053328;28;20029;-62
2021/12/05 04:04:55;;;;;;;33.77;23.13;;;;;;;;;;5055410;28;20041;-62
2021/12/05 04:07:21;;;;;;;28.87;22.03;;;;;;;;;;5036271;28;20037;-62
2021/12/05 04:09:48;;;;;;;29.90;22.70;;;;;;;;;;5035819;28;20040;-62
2021/12/05 04:12:15;;;;;;;31.63;23.50;;;;;;;;;;5051356;28;20029;-62
2021/12/05 04:14:46;;;;;;;32.53;23.17;;;;;;;;;;5053842;28;20037;-62
2021/12/05 04:17:14;;;;;;;31.27;23.17;;;;;;;;;;5054183;28;20028;-62
2021/12/05 04:19:40;;;;;;;29.40;21.50;;;;;;;;;;5054371;28;20086;-62
2021/12/05 04:22:07;;;;;;;29.43;23.10;;;;;;;;;;5053980;28;20563;-62
2021/12/05 04:24:33;;;;;;;28.63;21.73;;;;;;;;;;5053295;28;20048;-61
2021/12/05 04:27:00;;;;;;;29.97;21.67;;;;;;;;;;5054113;28;20025;-61
2021/12/05 04:29:26;;;;;;;31.20;22.57;;;;;;;;;;5055135;28;20024;-61
2021/12/05 04:31:52;;;;;;;30.70;23.93;;;;;;;;;;5042168;28;20501;-61
2021/12/05 04:34:18;;;;;;;30.43;23.13;;;;;;;;;;5051588;28;20115;-62
2021/12/05 04:36:45;;;;;;;29.87;22.53;;;;;;;;;;5053561;28;20028;-62
2021/12/05 04:39:12;;;;;;;33.63;24.03;;;;;;;;;;5054954;28;20091;-61
2021/12/05 04:44:41;;;;;;;32.47;23.80;;;6.20;86.10;;;;;;5053560;28;20056;-61
2021/12/05 04:47:07;;;;;;;33.80;23.87;;;;;;;;;;5054105;28;20025;-62
2021/12/05 04:49:33;;;;;;;30.43;23.97;;;;;;;;;;5054829;28;20037;-62
2021/12/05 04:52:01;;;;;;;30.80;23.83;;;;;;;;;;5053695;28;20025;-62
2021/12/05 04:54:27;;;;;;;34.37;23.80;;;;;;;;;;5046076;28;20033;-62
2021/12/05 04:57:08;;;;;;;32.00;23.07;;;;;;;;;;5051112;28;20017;-62
2021/12/05 04:59:37;;;;;;;32.00;23.40;;;;;;;;;;5054558;28;20108;-61
2021/12/05 05:02:07;;;;;;;30.87;22.30;;;6.00;84.70;;;;;;5050270;28;20399;-61
2021/12/05 05:04:42;;;;;;;30.47;23.03;;;6.00;64.80;;;;;;5052778;28;20490;-62
2021/12/05 05:07:20;;;;;;;29.02;22.15;;;5.90;81.50;;;;;;5052142;28;20028;-62
2021/12/05 05:09:49;;;;;;;29.60;21.90;;;;;;;;;;5053479;28;20025;-62
2021/12/05 05:12:15;;;;;;;31.97;23.03;;;;;;;;;;5047251;28;20053;-61
2021/12/05 05:14:41;;;;;;;32.43;23.50;;;;;;;;;;5050514;28;20428;-61
2021/12/05 05:17:07;;;;;;;34.10;23.70;;;;;;;;;;5051895;28;20104;-62
2021/12/05 05:19:40;;;;;;;29.30;22.10;;;;;;;;;;5051388;28;20126;-62
2021/12/05 05:43:27;;;;;;;39.50;24.93;;;6.00;80.50;;;;;;5037656;28;20068;-62
2021/12/05 05:46:12;;;;;;;32.30;24.43;;;6.00;80.20;;;;;;5052959;28;20028;-62
2021/12/05 05:49:12;;;;;;;33.40;23.67;;;5.90;80.10;;;;;;5051749;28;20397;-61
2021/12/05 05:51:25;;;;;;;33.90;23.60;;;5.90;80.30;;;;;;5052846;28;20036;-62
2021/12/05 05:53:50;;;;;;;30.80;24.10;;;6.00;80.70;;;;;;5046007;28;20037;-62
2021/12/05 05:56:22;;;;;;;35.83;24.40;;;6.00;80.20;;;;;;5051429;28;20040;-62
2021/12/05 05:58:57;;;;;;;31.40;22.93;;;6.00;79.70;;;;;;5052868;28;20020;-62
2021/12/05 06:01:56;;;;;;;34.47;24.70;;;5.90;79.70;;;;;;5053142;28;20024;-61
2021/12/05 06:04:18;;;;;;;33.30;23.23;;;5.90;79.90;;;;;;5052012;28;20037;-62
2021/12/05 06:06:45;;;;;;;30.50;22.10;;;5.90;80.10;;;;;;5053216;28;20025;-61
2021/12/05 06:09:11;;;;;;;32.03;23.37;;;5.80;79.40;;;;;;5050609;28;20066;-62
2021/12/05 06:11:37;;;;;;;32.97;23.10;;;5.90;79.60;;;;;;5051599;28;20021;-62
2021/12/05 06:14:03;;;;;;;29.40;23.07;;;5.90;79.70;;;;;;5052476;28;20028;-62
2021/12/05 06:16:30;;;;;;;30.17;23.47;;;5.70;79.80;;;;;;5053221;28;20087;-61
2021/12/05 06:18:56;;;;;;;32.20;24.07;;;5.70;80.70;;;;;;5051358;28;20024;-62
2021/12/05 06:21:22;;;;;;;32.57;24.53;;;5.80;80.50;;;;;;5051422;28;20029;-62
2021/12/05 06:23:48;;;;;;;31.57;23.27;;;5.80;80.20;;;;;;5050936;28;20035;-62
2021/12/05 06:26:19;;;;;;;31.60;23.60;;;5.80;79.50;;;;;;5051660;28;20021;-62
2021/12/05 06:29:17;;;;;;;34.00;24.23;;;5.70;78.50;;;;;;5051701;28;20041;-62
2021/12/05 06:40:04;;;;;;;29.10;22.33;;;5.70;63.60;;;;;;5052180;28;20083;-62
2021/12/05 06:46:01;;;;;;;29.77;22.40;;;5.70;64.20;;;;;;5036353;28;20052;-62
2021/12/05 06:48:27;;;;;;;31.87;22.13;;;5.80;65.90;;;;;;5032888;28;20024;-62
2021/12/05 06:50:52;;;;;;;33.23;24.17;;;5.80;76.90;;;;;;5048508;28;20036;-62
2021/12/05 06:53:18;;;;;;;36.13;24.77;;;5.70;70.40;;;;;;5052503;28;20471;-62
2021/12/05 06:55:44;;;;;;;32.77;24.77;;;;;;;;;;5051772;28;20025;-62
2021/12/05 06:58:10;;;;;;;30.40;23.97;;;;;;;;;;5052693;28;20048;-62
2021/12/05 07:00:35;;;;;;;30.73;23.67;;;5.40;78.20;;;;;;5050292;28;20057;-62
2021/12/05 07:03:01;;;;;;;35.80;25.10;;;5.60;76.40;;;;;;5051571;28;20033;-62
2021/12/05 07:08:02;;;;;;;34.50;26.02;;;;;;;;;;5052893;28;20036;-62
2021/12/05 07:10:31;;;;;;;35.60;27.03;;;;;;;;;;5051056;28;20033;-61
2021/12/05 07:13:36;;;;;;;39.77;28.17;;;;;;;;;;5052468;28;20017;-62
2021/12/05 07:16:06;;;;;;;34.70;27.90;;;;;;;;;;5051322;28;20344;-62
2021/12/05 07:21:24;;;;;;;38.20;27.13;;;5.20;81.20;;;;;;5047489;28;20025;-62
2021/12/05 07:42:38;;;;;;;34.30;26.30;;;;;;;;;;5041339;28;20040;-62
2021/12/05 07:45:25;;;;;;;39.03;26.90;;;;;;;;;;5051336;28;20132;-62
2021/12/05 07:47:52;;;;;;;34.13;25.67;;;;;;;;;;5053147;28;20061;-62
2021/12/05 07:50:23;;;;;;;39.60;28.47;;;;;;;;;;5054314;28;20458;-62
2021/12/05 07:52:53;;;;;;;37.10;28.20;;;;;;;;;;5052678;28;20475;-62
2021/12/05 07:55:28;;;;;;;34.73;26.73;;;;;;;;;;5054543;28;20033;-62
2021/12/05 08:00:38;;;;;;;36.03;27.10;;;;;;;;;;5045507;28;20067;-63
2021/12/05 08:16:51;;;;;;;42.73;28.00;;;4.90;83.80;;;;;;5051727;28;20118;-61
2021/12/05 08:19:18;;;;;;;39.97;27.13;;;4.90;85.00;;;;;;5039877;28;20029;-61
2021/12/05 08:21:45;;;;;;;40.40;28.23;;;4.80;84.80;;;;;;5034153;28;20030;-61
2021/12/05 08:24:11;;;;;;;38.20;29.10;;;4.90;84.30;;;;;;5053467;28;20127;-62
2021/12/05 08:26:37;;;;;;;35.40;28.17;;;4.90;84.60;;;;;;5054376;28;20048;-62
2021/12/05 08:40:16;;;;;;;39.43;27.77;;;4.80;75.00;;;;;;5047020;28;20080;-62
2021/12/05 08:43:40;;;;;;;35.63;27.87;;;4.90;75.00;;;;;;5045595;28;20029;-62
2021/12/05 08:45:53;;;;;;;36.80;28.03;;;4.90;74.60;;;;;;5050593;28;20497;-62
2021/12/05 09:51:19;;;;;;;44.80;32.58;;;5.70;69.30;;;;;;5052166;28;20509;-62
2021/12/05 10:10:11;;;;;;;42.90;31.20;;;5.90;68.60;;;;;;5041125;28;20132;-62
2021/12/05 10:35:33;;;;;;;42.03;29.87;;;6.20;73.90;;;;;;5033205;28;20403;-62
2021/12/05 10:38:07;;;;;;;37.20;28.73;;;6.20;75.20;;;;;;5036246;28;20112;-62
2021/12/05 10:40:40;;;;;;;39.13;28.57;;;6.30;75.70;;;;;;5052604;28;20074;-62
2021/12/05 10:43:17;;;;;;;42.47;32.07;;;6.30;74.50;;;;;;5045208;28;20037;-62
2021/12/05 10:45:49;;;;;;;39.77;29.83;;;6.30;74.60;;;;;;5051494;28;20505;-62
2021/12/05 10:48:29;;;;;;;41.87;31.23;;;6.20;73.90;;;;;;5049450;28;20033;-62
2021/12/05 10:51:02;;;;;;;40.93;31.43;;;6.40;73.40;;;;;;5043694;28;20471;-62
2021/12/05 10:54:08;;;;;;;44.77;32.00;;;6.20;74.70;;;;;;5048416;28;20037;-62
2021/12/05 10:56:36;;;;;;;43.13;33.00;;;6.30;75.10;;;;;;5017559;28;20120;-62
2021/12/05 10:59:26;;;;;;;40.63;31.93;;;6.30;75.50;;;;;;5043603;28;20087;-62
2021/12/05 11:02:00;;;;;;;49.83;33.63;;;6.30;76.30;;;;;;5050242;28;20378;-62
2021/12/05 11:04:28;;;;;;;45.45;32.70;;;6.40;75.30;;;;;;5036849;28;20041;-62
2021/12/05 11:06:58;;;;;;;46.30;34.10;;;6.30;73.80;;;;;;5032604;28;20025;-62
2021/12/05 11:09:32;;;;;;;44.27;32.60;;;6.40;75.90;;;;;;5046678;28;20094;-62
2021/12/05 11:12:08;;;;;;;42.33;31.23;;;6.50;74.00;;;;;;5052637;28;20025;-61
2021/12/05 11:14:48;;;;;;;42.00;31.77;;;6.40;72.90;;;;;;5036120;28;20080;-61
2021/12/05 11:17:21;;;;;;;37.97;28.97;;;6.50;72.20;;;;;;5051691;28;20032;-61
2021/12/05 11:20:13;;;;;;;43.60;30.93;;;6.60;69.70;;;;;;5055222;28;20103;-61
2021/12/05 11:22:45;;;;;;;39.10;28.57;;;6.70;70.40;;;;;;5048795;28;20106;-61
2021/12/05 11:25:14;;;;;;;40.47;29.23;;;6.70;70.30;;;;;;5036151;28;20044;-61
2021/12/05 11:27:43;;;;;;;36.63;29.23;;;6.70;68.90;;;;;;5035960;28;20021;-62
2021/12/05 11:30:13;;;;;;;36.37;27.80;;;6.70;67.80;;;;;;5042400;28;20086;-62
2021/12/05 11:32:54;;;;;;;35.13;27.47;;;6.80;67.40;;;;;;5056041;28;20032;-62
2021/12/05 11:35:22;;;;;;;37.63;27.50;;;6.80;67.10;;;;;;5036122;28;20063;-61
2021/12/05 11:38:06;;;;;;;36.63;27.70;;;6.70;66.60;;;;;;5036591;28;20068;-61
2021/12/05 11:40:46;;;;;;;39.67;28.80;;;6.80;67.30;;;;;;5053897;28;20033;-61
2021/12/05 11:43:15;;;;;;;38.67;28.00;;;;;;;;;;5050939;28;20018;-61
2021/12/05 11:45:59;;;;;;;41.07;28.63;;;;;;;;;;5035973;28;20037;-62
2021/12/05 11:48:34;;;;;;;36.58;27.98;;;7.10;73.30;;;;;;5039856;28;20418;-62
2021/12/05 11:51:15;;;;;;;35.67;27.17;;;7.10;74.00;;;;;;5055440;28;20021;-61
2021/12/05 11:53:48;;;;;;;36.60;27.50;;;7.00;72.60;;;;;;5054589;28;20021;-62
2021/12/05 11:56:37;;;;;;;32.10;26.03;;;;;;;;;;5056009;28;20048;-62
2021/12/05 11:59:14;;;;;;;32.47;25.57;;;;;;;;;;5044980;28;20505;-61
2021/12/05 12:01:52;;;;;;;33.03;26.30;;;7.20;67.70;;;;;;5035666;28;20483;-62
2021/12/05 12:04:20;;;;;;;35.27;27.30;;;7.30;66.90;;;;;;5046359;28;20072;-62
2021/12/05 12:07:04;;;;;;;32.47;24.13;;;7.20;66.20;;;;;;5054486;28;20029;-62
2021/12/05 12:09:31;;;;;;;31.67;24.87;;;7.20;64.70;;;;;;5054139;28;20517;-62
2021/12/05 12:11:58;;;;;;;33.23;23.93;;;7.30;64.20;;;;;;5055322;28;20031;-61
2021/12/05 12:14:23;;;;;;;31.97;24.07;;;7.30;64.00;;;;;;5042389;28;20071;-62
2021/12/05 12:16:51;;;;;;;32.37;23.83;;;7.30;59.90;;;;;;5052808;28;20029;-62
2021/12/05 12:19:21;;;;;;;31.17;24.90;;;7.40;60.10;;;;;;5052116;28;20020;-61
2021/12/05 12:21:48;;;;;;;28.60;22.17;;;7.60;71.40;;;;;;5054153;28;20514;-62
2021/12/05 12:24:15;;;;;;;28.60;23.27;;;7.40;66.10;;;;;;5043807;28;20387;-62
2021/12/05 12:26:43;;;;;;;26.63;22.83;;;;;;;;;;5034543;28;20026;-62
2021/12/05 12:29:11;;;;;;;30.60;23.53;;;;;;;;;;5045867;28;20120;-62
2021/12/05 12:31:39;;;;;;;31.07;22.77;;;;;;;;;;5054926;28;20032;-62
2021/12/05 12:34:08;;;;;;;28.03;21.73;;;7.50;69.50;;;;;;5053179;28;20029;-62
2021/12/05 12:36:35;;;;;;;29.87;23.07;;;;;;;;;;5051456;28;20071;-62
2021/12/05 12:39:03;;;;;;;26.57;22.87;;;;;;;;;;5052736;28;20324;-62
2021/12/05 12:41:29;;;;;;;28.33;21.47;;;;;;;;;;5034880;28;20333;-62
2021/12/05 12:43:58;;;;;;;25.13;21.33;;;7.80;52.40;;;;;;5034881;28;20045;-62
2021/12/05 12:46:49;;;;;;;30.00;22.60;;;7.80;52.20;;;;;;5034918;28;20022;-62
2021/12/05 12:49:14;;;;;;;28.70;21.33;;;7.80;52.40;;;;;;5039457;28;20083;-62
2021/12/05 12:51:51;;;;;;;28.10;20.73;;;7.80;54.60;;;;;;5034762;28;20026;-62
2021/12/05 12:54:33;;;;;;;29.57;22.03;;;7.80;55.10;;;;;;5034946;28;20030;-62
2021/12/05 12:57:19;;;;;;;29.17;22.27;;;7.90;54.60;;;;;;5034726;28;20022;-62
2021/12/05 12:59:55;;;;;;;27.33;20.97;;;7.90;55.30;;;;;;5046028;28;20473;-62
2021/12/05 13:02:30;;;;;;;27.07;21.83;;;7.90;54.40;;;;;;5054593;28;20020;-62
2021/12/05 13:05:24;;;;;;;26.57;21.10;;;7.90;56.40;;;;;;5040302;28;20490;-62
2021/12/05 13:10:43;;;;;;;24.77;20.70;;;7.90;55.90;;;;;;5054474;28;20398;-62
2021/12/05 13:13:19;;;;;;;25.37;20.60;;;8.00;55.50;;;;;;5053895;28;20470;-63
2021/12/05 13:15:53;;;;;;;24.60;19.63;;;8.00;50.00;;;;;;5034644;28;20410;-63
2021/12/05 13:18:34;;;;;;;27.17;20.63;;;8.00;52.40;;;;;;5034365;28;20030;-62
2021/12/05 13:21:08;;;;;;;25.03;20.63;;;8.00;51.50;;;;;;5049631;28;20033;-62
2021/12/05 13:23:46;;;;;;;24.17;20.97;;;8.00;54.50;;;;;;5049970;28;20524;-62
2021/12/05 13:26:36;;;;;;;25.60;20.10;;;8.00;54.60;;;;;;5051867;28;21746;-62
2021/12/05 13:29:19;;;;;;;27.07;22.07;;;8.00;51.00;;;;;;5047331;28;20033;-63
2021/12/05 13:32:08;;;;;;;25.00;20.57;;;8.00;49.90;;;;;;5034025;28;20072;-62
2021/12/05 13:34:51;;;;;;;26.37;20.43;;;8.00;50.50;;;;;;5050666;28;20029;-62
2021/12/05 13:37:16;;;;;;;28.10;20.67;;;8.10;51.00;;;;;;5053496;28;20048;-62
2021/12/05 13:40:11;;;;;;;26.27;20.80;;;8.10;50.50;;;;;;5051429;28;20043;-62
2021/12/05 13:42:39;;;;;;;27.58;21.13;;;8.10;51.00;;;;;;5052917;28;20041;-63
2021/12/05 13:45:06;;;;;;;29.73;21.87;;;8.20;51.50;;;;;;5045965;28;20497;-63
2021/12/05 13:47:53;;;;;;;29.00;21.20;;;8.20;53.40;;;;;;5053595;28;20099;-62
2021/12/05 13:50:19;;;;;;;27.80;21.23;;;8.20;51.40;;;;;;5051512;28;20037;-62
2021/12/05 13:52:49;;;;;;;25.47;19.80;;;8.20;53.40;;;;;;5051965;28;20033;-63
2021/12/05 13:55:53;;;;;;;29.50;20.17;;;8.30;52.10;;;;;;5045937;28;20025;-62
2021/12/05 13:58:43;;;;;;;23.63;19.07;;;8.20;50.70;;;;;;5033190;28;20091;-63
2021/12/05 14:01:25;;;;;;;26.30;20.63;;;8.20;50.10;;;;;;5036134;28;20037;-62
2021/12/05 14:04:00;;;;;;;26.10;19.80;;;8.10;50.80;;;;;;5052330;28;20032;-62
2021/12/05 14:06:34;;;;;;;27.88;19.98;;;8.20;50.50;;;;;;5053236;28;20040;-62
2021/12/05 14:09:03;;;;;;;23.08;18.95;;;8.20;50.80;;;;;;5045040;28;20018;-62
2021/12/05 14:11:28;;;;;;;25.93;20.10;;;8.20;49.50;;;;;;5047732;28;20029;-63
2021/12/05 14:13:55;;;;;;;29.40;20.80;;;8.20;50.30;;;;;;5051864;28;20036;-62
2021/12/05 14:16:30;;;;;;;28.40;20.80;;;8.30;51.10;;;;;;5051653;28;20471;-62
2021/12/05 14:18:56;;;;;;;26.40;19.60;;;8.30;50.70;;;;;;5049854;28;20040;-62
2021/12/05 14:21:23;;;;;;;24.80;20.30;;;8.30;51.30;;;;;;5052044;28;20033;-63
2021/12/05 14:23:50;;;;;;;28.63;20.20;;;8.20;49.90;;;;;;5052102;28;20031;-62
2021/12/05 14:26:20;;;;;;;25.87;20.30;;;8.30;50.50;;;;;;5052992;28;20104;-63
2021/12/05 14:29:16;;;;;;;25.47;19.67;;;8.20;49.20;;;;;;5033077;28;20032;-62
2021/12/05 14:31:45;;;;;;;27.33;20.60;;;8.20;48.10;;;;;;5032330;28;20033;-63
2021/12/05 14:34:12;;;;;;;28.67;21.03;;;8.20;51.00;;;;;;5033018;28;20420;-62
2021/12/05 14:36:43;;;;;;;31.27;22.63;;;8.20;50.00;;;;;;5034738;28;20045;-63
2021/12/05 14:39:14;;;;;;;33.20;23.93;;;8.10;50.40;;;;;;5049143;28;20025;-62
2021/12/05 14:41:41;;;;;;;34.60;22.90;;;8.20;50.50;;;;;;5052686;28;20463;-63
2021/12/05 14:44:07;;;;;;;31.53;23.83;;;8.10;50.50;;;;;;5047190;28;20434;-62
2021/12/05 14:46:42;;;;;;;32.37;24.13;;;8.10;50.50;;;;;;5034157;28;20025;-63
2021/12/05 14:49:08;;;;;;;32.17;23.40;;;8.10;51.70;;;;;;5036865;28;20056;-63
2021/12/05 14:51:37;;;;;;;32.17;22.73;;;8.20;51.20;;;;;;5053971;28;20044;-63
2021/12/05 14:54:04;;;;;;;31.40;23.63;;;8.20;50.90;;;;;;5042202;28;20091;-63
2021/12/05 14:56:33;;;;;;;33.60;25.37;;;8.10;50.90;;;;;;5057735;28;20491;-63
2021/12/05 14:59:11;;;;;;;38.90;26.47;;;8.10;50.30;;;;;;5055735;28;20174;-62
2021/12/05 15:01:40;;;;;;;34.67;26.33;;;8.10;51.80;;;;;;5038653;28;20037;-63
2021/12/05 15:04:09;;;;;;;38.67;26.23;;;8.10;51.70;;;;;;5041768;28;20037;-63
2021/12/05 15:06:39;;;;;;;32.83;26.47;;;8.10;52.10;;;;;;5057355;28;20032;-62
2021/12/05 15:09:16;;;;;;;37.80;27.40;;;8.10;53.00;;;;;;5056355;28;20048;-63
2021/12/05 15:11:49;;;;;;;41.60;30.93;;;8.00;52.90;;;;;;5057912;28;20441;-63
2021/12/05 15:14:16;;;;;;;39.83;28.63;;;8.00;52.50;;;;;;5057159;28;20029;-62
2021/12/05 15:17:02;;;;;;;38.93;28.57;;;8.00;53.00;;;;;;5058665;28;20100;-63
2021/12/05 15:19:28;;;;;;;35.93;28.10;;;8.00;51.50;;;;;;5053226;28;20102;-63
2021/12/05 15:21:54;;;;;;;39.63;29.27;;;8.00;51.40;;;;;;5039329;28;20136;-63
2021/12/05 15:24:22;;;;;;;39.40;28.90;;;7.90;53.60;;;;;;5050796;28;20482;-62
2021/12/05 15:26:48;;;;;;;39.50;28.63;;;8.00;52.80;;;;;;5059147;28;20462;-63
2021/12/05 15:29:14;;;;;;;39.07;30.10;;;7.90;52.80;;;;;;5055615;28;20582;-62
2021/12/05 15:31:42;;;;;;;38.87;30.03;;;7.90;53.40;;;;;;5038994;28;20029;-63
2021/12/05 15:34:30;;;;;;;44.63;30.50;;;7.90;54.30;;;;;;5052156;28;20060;-63
2021/12/05 15:36:58;;;;;;;45.83;32.00;;;7.90;52.80;;;;;;5058851;28;20136;-63
2021/12/05 15:39:27;;;;;;;43.60;32.33;;;7.80;54.20;;;;;;5054685;28;20538;-63
2021/12/05 15:41:57;;;;;;;46.67;33.23;;;7.80;53.80;;;;;;5057262;28;20029;-62
2021/12/05 15:44:31;;;;;;;45.50;34.37;;;7.80;54.00;;;;;;5053684;28;20037;-62
2021/12/05 15:47:08;;;;;;;44.80;34.63;;;7.80;54.00;;;;;;5039041;28;20025;-63
2021/12/05 15:49:49;;;;;;;46.67;33.20;;;7.70;54.80;;;;;;5040541;28;20041;-62
2021/12/05 15:52:17;;;;;;;46.87;34.60;;;7.70;54.90;;;;;;5040398;28;20017;-63
2021/12/05 15:54:44;;;;;;;49.40;34.63;;;7.60;54.30;;;;;;5043139;28;20128;-62
2021/12/05 15:57:22;;;;;;;50.27;35.00;;;7.60;55.60;;;;;;5056148;28;20062;-63
2021/12/05 15:59:48;;;;;;;49.80;35.20;;;7.60;55.90;;;;;;5050822;28;20033;-63
2021/12/05 16:02:19;;;;;;;50.53;34.63;;;7.60;55.80;;;;;;5050272;28;20104;-63
2021/12/05 16:04:45;;;;;;;51.50;35.47;;;7.60;56.60;;;;;;5053596;28;20090;-63
2021/12/05 16:07:12;;;;;;;48.00;35.90;;;7.50;56.30;;;;;;5054212;28;20031;-63
2021/12/05 16:09:40;;;;;;;46.40;36.13;;;7.60;56.20;;;;;;5050567;28;20487;-63
2021/12/05 16:12:17;;;;;;;50.47;36.60;;;7.50;56.30;;;;;;5035516;28;20049;-63
2021/12/05 16:14:52;;;;;;;51.53;36.37;;;7.50;56.40;;;;;;5040067;28;20029;-62
2021/12/05 16:17:28;;;;;;;52.13;35.63;;;7.50;56.50;;;;;;5053427;28;20368;-62
2021/12/05 16:20:09;;;;;;;51.27;37.50;;;7.40;56.30;;;;;;5035483;28;20101;-63
2021/12/05 16:22:54;;;;;;;48.87;36.20;;;7.50;56.40;;;;;;5036447;28;20021;-63
2021/12/05 16:25:20;;;;;;;49.53;35.97;;;7.40;56.10;;;;;;5053464;28;20364;-63
2021/12/05 16:27:54;;;;;;;49.40;36.57;;;7.40;56.30;;;;;;5054014;28;20100;-62
2021/12/05 16:30:21;;;;;;;;;;;7.40;56.80;;;;;;5054542;28;20136;-62
2021/12/05 16:32:47;;;;;;;48.40;36.67;;;7.30;56.40;;;;;;5055255;28;19911;-63
2021/12/05 16:35:43;;;;;;;51.87;37.73;;;7.30;56.60;;;;;;5052584;28;20107;-63
2021/12/05 16:38:20;;;;;;;50.10;37.43;;;7.30;58.20;;;;;;5054194;28;20380;-62
2021/12/05 16:41:25;;;;;;;53.93;38.47;;;7.40;57.40;;;;;;5052586;28;20044;-62
2021/12/05 16:43:53;;;;;;;54.92;37.97;;;7.40;56.70;;;;;;5054332;28;20040;-63
2021/12/05 16:46:53;;;;;;;46.43;36.43;;;7.30;57.20;;;;;;5053891;28;20386;-63
2021/12/05 16:49:23;;;;;;;54.47;37.80;;;7.40;56.90;;;;;;5053474;28;20402;-62
2021/12/05 16:51:57;;;;;;;53.47;36.93;;;7.30;58.20;;;;;;5052627;28;20040;-62
2021/12/05 16:54:29;;;;;;;53.47;36.75;;;7.30;58.10;;;;;;5050443;28;20591;-62
2021/12/05 16:57:30;;;;;;;49.03;37.17;;;7.30;57.90;;;;;;5051518;28;20493;-62
2021/12/05 16:59:58;;;;;;;50.30;37.50;;;7.30;57.90;;;;;;5051387;28;20029;-62
2021/12/05 17:02:31;;;;;;;49.47;36.33;;;7.20;58.20;;;;;;5050422;28;20470;-62
2021/12/05 17:05:05;;;;;;;46.60;34.10;;;7.30;56.80;;;;;;5039387;28;20174;-62
2021/12/05 17:10:35;;;;;;;47.80;34.90;;;7.40;58.50;;;;;;5053471;28;20033;-63
2021/12/05 17:13:23;;;;;;;51.07;36.97;;;7.30;58.60;;;;;;5056639;28;20036;-63
2021/12/05 17:16:03;;;;;;;50.43;36.10;;;7.30;59.20;;;;;;5041726;28;20029;-62
2021/12/05 17:18:34;;;;;;;46.07;34.03;;;7.30;59.10;;;;;;5034110;28;20040;-63
2021/12/05 17:21:16;;;;;;;47.70;34.00;;;7.20;58.30;;;;;;5034253;28;20120;-62
2021/12/05 17:23:46;;;;;;;44.97;35.10;;;7.30;58.70;;;;;;5044772;28;20036;-63
2021/12/05 17:26:52;;;;;;;45.93;33.67;;;7.30;58.40;;;;;;5053320;28;20429;-62
2021/12/05 17:29:34;;;;;;;45.10;33.87;;;7.20;58.40;;;;;;4992211;28;20042;-62
2021/12/05 17:32:10;;;;;;;43.60;32.37;;;7.20;57.90;;;;;;4992260;28;20125;-62
2021/12/05 17:34:45;;;;;;;44.77;32.47;;;7.20;57.90;;;;;;4991365;28;20026;-63
2021/12/05 17:37:23;;;;;;;44.43;34.03;;;7.20;59.00;;;;;;4992243;28;20043;-62
2021/12/05 17:39:50;;;;;;;47.10;35.50;;;7.20;58.10;;;;;;4990711;28;20550;-62
2021/12/05 17:42:19;;;;;;;48.27;35.67;;;7.30;58.80;;;;;;4992004;28;20431;-63
2021/12/05 17:44:47;;;;;;;49.13;36.83;;;7.30;58.40;;;;;;4976682;28;20054;-62
2021/12/05 17:47:14;;;;;;;50.37;36.47;;;7.30;59.20;;;;;;4992222;28;20054;-62
2021/12/05 17:49:42;;;;;;;51.07;35.50;;;7.30;59.50;;;;;;4991190;28;20038;-62
2021/12/05 17:52:13;;;;;;;50.83;36.50;;;7.30;58.90;;;;;;4990858;28;20105;-62
2021/12/05 17:54:51;;;;;;;48.53;34.33;;;7.30;58.40;;;;;;4991284;28;20030;-62
2021/12/05 17:57:22;;;;;;;44.23;33.27;;;7.30;59.30;;;;;;4991769;28;20432;-62
2021/12/05 18:02:45;;;;;;;48.47;34.00;;;7.30;59.00;;;;;;5001671;28;20025;-63
2021/12/05 18:05:21;;;;;;;47.43;34.73;;;7.20;58.80;;;;;;5051845;28;20171;-62
2021/12/05 18:07:48;;;;;;;48.67;34.80;;;7.20;59.70;;;;;;5052789;28;20021;-62
2021/12/05 18:10:16;;;;;;;52.57;36.17;;;7.20;58.90;;;;;;5047437;28;20029;-63
2021/12/05 18:12:43;;;;;;;47.27;34.83;;;7.30;59.70;;;;;;5046364;28;20501;-62
2021/12/05 18:15:15;;;;;;;45.70;34.40;;;7.30;59.50;;;;;;5048741;28;20402;-63
2021/12/05 18:17:41;;;;;;;44.53;33.80;;;7.20;59.70;;;;;;5039333;28;20123;-62
2021/12/05 18:20:14;;;;;;;52.03;34.47;;;7.30;59.80;;;;;;5052423;28;20171;-62
2021/12/05 18:22:41;;;;;;;44.60;33.93;;;7.40;57.70;;;;;;5033133;28;20033;-63
2021/12/05 18:25:09;;;;;;;52.67;35.47;;;7.40;58.20;;;;;;5035054;28;20079;-62
2021/12/05 18:27:36;;;;;;;48.30;35.90;;;7.40;58.80;;;;;;5052118;28;20390;-63
2021/12/05 18:30:04;;;;;;;50.83;36.40;;;7.40;59.00;;;;;;5051980;28;20051;-62
2021/12/05 18:32:30;;;;;;;49.03;36.10;;;7.30;59.60;;;;;;5053137;28;20029;-62
2021/12/05 18:34:56;;;;;;;53.80;36.23;;;7.30;59.90;;;;;;5049494;28;20037;-62
2021/12/05 18:37:22;;;;;;;50.30;37.63;;;7.20;59.70;;;;;;5050607;28;20080;-62
2021/12/05 18:39:51;;;;;;;49.73;35.90;;;7.20;60.10;;;;;;5048558;28;20039;-62
2021/12/05 18:42:18;;;;;;;51.67;36.60;;;7.20;59.90;;;;;;5033166;28;20044;-63
2021/12/05 18:44:50;;;;;;;45.90;35.73;;;7.20;59.80;;;;;;5048050;28;20052;-62
2021/12/05 18:47:16;;;;;;;46.93;35.10;;;7.20;59.80;;;;;;5050258;28;20085;-62
2021/12/05 18:49:43;;;;;;;46.43;35.27;;;7.20;60.30;;;;;;5052654;28;20039;-62
2021/12/05 18:52:09;;;;;;;50.40;34.63;;;7.20;60.30;;;;;;5051698;28;20032;-62
2021/12/05 18:54:41;;;;;;;48.40;36.53;;;7.20;60.30;;;;;;5052701;28;20037;-63